Time;durP1;ratioP1;P1;durP2;ratioP2;P2;SDS_P1;SDS_P2;PMS_P1;PMS_P2;Temp;Humidity;BMP_temperature;BMP_pressure;BME280_temperature;BME280_humidity;BME280_pressure;Samples;Min_cycle;Max_cycle;Signal;HPM_P1;HPM_P2
2023/07/29 00:01:01;;;;;;;0.25;0.25;;;;;;;;;;5032043;28;20025;-86
2023/07/29 00:03:29;;;;;;;0.22;0.22;;;;;;;;;;5032052;28;20363;-86
2023/07/29 00:05:55;;;;;;;0.35;0.35;;;;;;;;;;5031873;28;20029;-86
2023/07/29 00:08:21;;;;;;;0.17;0.17;;;;;;;;;;5032275;28;20036;-86
2023/07/29 00:10:47;;;;;;;0.10;0.10;;;;;;;;;;5031820;28;20057;-86
2023/07/29 00:13:13;;;;;;;0.20;0.20;;;;;;;;;;5031870;28;20060;-86
2023/07/29 00:15:39;;;;;;;0.70;0.30;;;;;;;;;;5031884;28;20037;-86
2023/07/29 00:18:05;;;;;;;0.20;0.10;;;;;;;;;;5030413;28;20042;-86
2023/07/29 00:20:31;;;;;;;0.20;0.10;;;;;;;;;;5031851;28;20022;-86
2023/07/29 00:22:58;;;;;;;2.10;0.45;;;;;;;;;;5031327;28;20025;-86
2023/07/29 00:25:24;;;;;;;0.00;0.00;;;;;;;;;;5031726;28;20026;-86
2023/07/29 00:27:51;;;;;;;2.05;0.20;;;;;;;;;;5030283;28;20031;-86
2023/07/29 00:30:17;;;;;;;0.00;0.00;;;;;;;;;;5031647;28;20044;-86
2023/07/29 00:32:43;;;;;;;0.00;0.00;;;;;;;;;;5031735;28;20052;-86
2023/07/29 00:35:09;;;;;;;0.10;0.10;;;;;;;;;;5031600;28;20033;-85
2023/07/29 00:37:37;;;;;;;0.50;0.50;;;;;;;;;;5031745;28;20018;-86
2023/07/29 00:40:03;;;;;;;0.65;0.65;;;;;;;;;;5031653;28;20030;-86
2023/07/29 00:42:29;;;;;;;0.20;0.20;;;;;;;;;;5031387;28;20104;-86
2023/07/29 00:44:55;;;;;;;0.35;0.32;;;;;;;;;;5031665;28;20159;-86
2023/07/29 00:47:22;;;;;;;0.45;0.45;;;;;;;;;;5031518;28;20026;-86
2023/07/29 00:49:48;;;;;;;0.20;0.20;;;;;;;;;;5029732;28;20041;-86
2023/07/29 00:52:15;;;;;;;0.47;0.20;;;;;;;;;;5031579;28;20031;-86
2023/07/29 00:54:41;;;;;;;0.45;0.45;;;;;;;;;;5032953;28;20033;-86
2023/07/29 00:57:10;;;;;;;0.50;0.50;;;;;;;;;;5034775;28;20391;-86
2023/07/29 00:59:36;;;;;;;0.20;0.20;;;;;;;;;;5035394;28;20049;-86
2023/07/29 01:02:03;;;;;;;0.40;0.40;;;;;;;;;;5035036;28;20048;-86
2023/07/29 01:04:29;;;;;;;0.90;0.40;;;;;;;;;;5034920;28;20025;-86
2023/07/29 01:06:55;;;;;;;0.22;0.22;;;;;;;;;;5034942;28;20029;-86
2023/07/29 01:09:26;;;;;;;0.22;0.22;;;;;;;;;;5034497;28;20029;-86
2023/07/29 01:12:02;;;;;;;0.88;0.20;;;;;;;;;;5034570;28;20418;-86
2023/07/29 01:14:41;;;;;;;0.15;0.15;;;;;;;;;;5034758;28;20109;-86
2023/07/29 01:17:09;;;;;;;0.20;0.20;;;;;;;;;;5033127;28;20045;-86
2023/07/29 01:19:44;;;;;;;0.10;0.10;;;;;;;;;;5034684;28;20037;-86
2023/07/29 01:22:11;;;;;;;0.38;0.35;;;;;;;;;;5034244;28;20083;-86
2023/07/29 01:24:38;;;;;;;0.10;0.10;;;;;;;;;;5034505;28;20032;-86
2023/07/29 01:27:05;;;;;;;0.10;0.10;;;;;;;;;;5032871;28;20474;-86
2023/07/29 01:29:31;;;;;;;0.45;0.30;;;;;;;;;;5034422;28;20032;-86
2023/07/29 01:31:59;;;;;;;0.03;0.03;;;;;;;;;;5033558;28;20423;-86
2023/07/29 01:34:28;;;;;;;0.10;0.10;;;;;;;;;;5034272;28;20216;-86
2023/07/29 01:36:55;;;;;;;0.10;0.10;;;;;;;;;;5032849;28;20034;-86
2023/07/29 01:39:22;;;;;;;0.10;0.10;;;;;;;;;;5034663;28;20108;-86
2023/07/29 01:41:49;;;;;;;0.40;0.30;;;;;;;;;;5034098;28;20100;-86
2023/07/29 01:44:15;;;;;;;0.10;0.10;;;;;;;;;;5034346;28;20587;-86
2023/07/29 01:46:41;;;;;;;0.00;0.00;;;;;;;;;;5034087;28;20029;-86
2023/07/29 01:49:07;;;;;;;0.10;0.10;;;;;;;;;;5032786;28;20363;-86
2023/07/29 01:51:33;;;;;;;0.22;0.22;;;;;;;;;;5033829;28;20040;-86
2023/07/29 01:53:59;;;;;;;0.90;0.80;;;;;;;;;;5034580;28;20026;-86
2023/07/29 01:56:25;;;;;;;0.20;0.20;;;;;;;;;;5034022;28;20021;-86
2023/07/29 01:58:51;;;;;;;0.10;0.10;;;;;;;;;;5033960;28;20554;-86
2023/07/29 02:01:17;;;;;;;0.45;0.28;;;;;;;;;;5034148;28;20026;-86
2023/07/29 02:03:44;;;;;;;0.40;0.30;;;;;;;;;;5033870;28;20034;-86
2023/07/29 02:06:10;;;;;;;0.68;0.57;;;;;;;;;;5033200;28;20464;-86
2023/07/29 02:08:36;;;;;;;0.15;0.15;;;;;;;;;;5033784;28;20101;-86
2023/07/29 02:11:02;;;;;;;0.15;0.15;;;;;;;;;;5033760;28;20048;-86
2023/07/29 02:13:27;;;;;;;0.30;0.30;;;;;;;;;;5033918;28;20104;-86
2023/07/29 02:15:54;;;;;;;0.00;0.00;;;;;;;;;;5033355;28;20037;-86
2023/07/29 02:18:20;;;;;;;0.50;0.22;;;;;;;;;;5033977;28;20049;-86
2023/07/29 02:20:49;;;;;;;0.10;0.10;;;;;;;;;;5033447;28;20112;-86
2023/07/29 02:23:16;;;;;;;0.20;0.20;;;;;;;;;;5033284;28;20021;-86
2023/07/29 02:25:42;;;;;;;0.30;0.30;;;;;;;;;;5033340;28;20033;-86
2023/07/29 02:28:08;;;;;;;0.65;0.20;;;;;;;;;;5031890;28;20037;-86
2023/07/29 02:30:34;;;;;;;0.17;0.17;;;;;;;;;;5033639;28;20041;-86
2023/07/29 02:33:01;;;;;;;0.43;0.43;;;;;;;;;;5033014;28;20508;-86
2023/07/29 02:35:27;;;;;;;0.38;0.38;;;;;;;;;;5033124;28;20044;-86
2023/07/29 02:37:53;;;;;;;0.20;0.20;;;;;;;;;;5033404;28;20018;-86
2023/07/29 02:40:20;;;;;;;0.75;0.32;;;;;;;;;;5033032;28;20032;-86
2023/07/29 02:42:46;;;;;;;0.13;0.13;;;;;;;;;;5033397;28;20049;-87
2023/07/29 02:45:12;;;;;;;0.80;0.55;;;;;;;;;;5033118;28;20041;-86
2023/07/29 02:47:38;;;;;;;0.00;0.00;;;;;;;;;;5032658;28;20025;-86
2023/07/29 02:50:05;;;;;;;0.32;0.28;;;;;;;;;;5032904;28;20378;-86
2023/07/29 02:52:31;;;;;;;0.22;0.22;;;;;;;;;;5033301;28;20028;-86
2023/07/29 02:54:57;;;;;;;1.80;0.30;;;;;;;;;;5032763;28;20060;-86
2023/07/29 02:57:23;;;;;;;0.93;0.57;;;;;;;;;;5032851;28;20061;-86
2023/07/29 02:59:49;;;;;;;0.40;0.40;;;;;;;;;;5031902;28;20038;-86
2023/07/29 03:02:16;;;;;;;0.25;0.25;;;;;;;;;;5032494;28;20032;-86
2023/07/29 03:04:42;;;;;;;0.10;0.10;;;;;;;;;;5032664;28;20424;-86
2023/07/29 03:07:08;;;;;;;0.13;0.13;;;;;;;;;;5032471;28;20071;-86
2023/07/29 03:09:34;;;;;;;0.10;0.10;;;;;;;;;;5032672;28;20025;-86
2023/07/29 03:12:00;;;;;;;0.25;0.25;;;;;;;;;;5032696;28;20150;-86
2023/07/29 03:14:27;;;;;;;0.20;0.20;;;;;;;;;;5032653;28;20608;-86
2023/07/29 03:16:53;;;;;;;0.20;0.20;;;;;;;;;;5031307;28;20095;-86
2023/07/29 03:19:19;;;;;;;0.20;0.20;;;;;;;;;;5032498;28;20033;-86
2023/07/29 03:21:45;;;;;;;0.55;0.55;;;;;;;;;;5030891;28;20029;-86
2023/07/29 03:24:11;;;;;;;0.20;0.20;;;;;;;;;;5032773;28;20018;-86
2023/07/29 03:26:37;;;;;;;0.47;0.38;;;;;;;;;;5032198;28;20036;-86
2023/07/29 03:29:03;;;;;;;0.25;0.25;;;;;;;;;;5032376;28;20222;-86
2023/07/29 03:31:29;;;;;;;0.22;0.20;;;;;;;;;;5030590;28;20048;-86
2023/07/29 03:33:56;;;;;;;0.20;0.20;;;;;;;;;;5032154;28;20053;-86
2023/07/29 03:36:22;;;;;;;0.20;0.20;;;;;;;;;;5032122;28;20485;-86
2023/07/29 03:38:48;;;;;;;0.20;0.20;;;;;;;;;;5031222;28;20096;-86
2023/07/29 03:41:14;;;;;;;2.15;0.75;;;;;;;;;;5032238;28;20109;-86
2023/07/29 03:43:40;;;;;;;0.95;0.68;;;;;;;;;;5032270;28;20026;-86
2023/07/29 03:46:06;;;;;;;1.30;0.70;;;;;;;;;;5031785;28;20469;-85
2023/07/29 03:48:32;;;;;;;0.22;0.22;;;;;;;;;;5032105;28;20078;-86
2023/07/29 03:50:58;;;;;;;0.45;0.45;;;;;;;;;;5032349;28;20041;-86
2023/07/29 03:53:24;;;;;;;0.25;0.25;;;;;;;;;;5032183;28;20029;-85
2023/07/29 03:55:50;;;;;;;0.28;0.28;;;;;;;;;;5031959;28;20168;-86
2023/07/29 03:58:16;;;;;;;0.30;0.30;;;;;;;;;;5032016;28;20040;-85
2023/07/29 04:00:42;;;;;;;1.00;0.50;;;;;;;;;;5031687;28;20478;-86
2023/07/29 04:03:08;;;;;;;1.77;0.63;;;;;;;;;;5032276;28;20018;-85
2023/07/29 04:05:34;;;;;;;0.10;0.10;;;;;;;;;;5032313;28;20037;-86
2023/07/29 04:08:00;;;;;;;0.28;0.20;;;;;;;;;;5031838;28;20028;-86
2023/07/29 04:10:26;;;;;;;0.28;0.28;;;;;;;;;;5031852;28;20065;-86
2023/07/29 04:12:52;;;;;;;0.10;0.10;;;;;;;;;;5032207;28;20050;-86
2023/07/29 04:15:18;;;;;;;0.20;0.20;;;;;;;;;;5031859;28;20068;-86
2023/07/29 04:17:45;;;;;;;0.20;0.20;;;;;;;;;;5032217;28;20049;-86
2023/07/29 04:20:11;;;;;;;0.00;0.00;;;;;;;;;;5031044;28;20029;-86
2023/07/29 04:22:37;;;;;;;0.63;0.30;;;;;;;;;;5032078;28;20017;-86
2023/07/29 04:25:04;;;;;;;0.20;0.15;;;;;;;;;;5032264;28;20590;-86
2023/07/29 04:27:30;;;;;;;1.10;0.35;;;;;;;;;;5031786;28;20099;-86
2023/07/29 04:29:56;;;;;;;0.10;0.10;;;;;;;;;;5035374;28;20052;-86
2023/07/29 04:32:22;;;;;;;0.15;0.13;;;;;;;;;;5036453;28;20382;-86
2023/07/29 04:34:48;;;;;;;0.47;0.30;;;;;;;;;;5035763;28;20078;-86
2023/07/29 04:37:14;;;;;;;0.10;0.10;;;;;;;;;;5035619;28;20044;-85
2023/07/29 04:39:40;;;;;;;0.63;0.63;;;;;;;;;;5035964;28;20032;-86
2023/07/29 04:42:06;;;;;;;0.17;0.17;;;;;;;;;;5036013;28;20025;-86
2023/07/29 04:44:32;;;;;;;0.17;0.17;;;;;;;;;;5035218;28;20032;-86
2023/07/29 04:46:58;;;;;;;0.98;0.30;;;;;;;;;;5035504;28;20029;-86
2023/07/29 04:49:24;;;;;;;0.40;0.40;;;;;;;;;;5035457;28;20108;-86
2023/07/29 04:51:50;;;;;;;0.25;0.25;;;;;;;;;;5035460;28;20112;-87
2023/07/29 04:54:16;;;;;;;0.10;0.10;;;;;;;;;;5035353;28;20022;-87
2023/07/29 04:56:42;;;;;;;0.20;0.20;;;;;;;;;;5035621;28;20103;-86
2023/07/29 04:59:08;;;;;;;0.13;0.03;;;;;;;;;;5035285;28;20104;-86
2023/07/29 05:01:34;;;;;;;0.20;0.20;;;;;;;;;;5035300;28;20390;-86
2023/07/29 05:04:00;;;;;;;0.30;0.30;;;;;;;;;;5035188;28;20029;-86
2023/07/29 05:06:26;;;;;;;0.77;0.30;;;;;;;;;;5035254;28;20434;-86
2023/07/29 05:08:52;;;;;;;0.17;0.17;;;;;;;;;;5035418;28;20025;-86
2023/07/29 05:11:18;;;;;;;0.25;0.25;;;;;;;;;;5034725;28;20065;-86
2023/07/29 05:13:44;;;;;;;0.22;0.22;;;;;;;;;;5034786;28;20025;-86
2023/07/29 05:16:10;;;;;;;0.10;0.10;;;;;;;;;;5034961;28;20497;-85
2023/07/29 05:18:36;;;;;;;0.22;0.22;;;;;;;;;;5034498;28;20612;-86
2023/07/29 05:21:02;;;;;;;0.30;0.30;;;;;;;;;;5035112;28;20108;-85
2023/07/29 05:23:28;;;;;;;0.13;0.13;;;;;;;;;;5034524;28;20378;-86
2023/07/29 05:25:54;;;;;;;0.10;0.10;;;;;;;;;;5034795;28;20041;-87
2023/07/29 05:28:20;;;;;;;0.03;0.03;;;;;;;;;;5034216;28;20096;-86
2023/07/29 05:30:46;;;;;;;0.15;0.15;;;;;;;;;;5034545;28;20048;-85
2023/07/29 05:33:12;;;;;;;0.10;0.10;;;;;;;;;;5035065;28;20096;-86
2023/07/29 05:35:39;;;;;;;0.08;0.08;;;;;;;;;;5034455;28;20040;-86
2023/07/29 05:38:08;;;;;;;0.20;0.20;;;;;;;;;;5034599;28;20517;-86
2023/07/29 05:40:34;;;;;;;0.10;0.10;;;;;;;;;;5033652;28;20068;-86
2023/07/29 05:42:59;;;;;;;0.10;0.10;;;;;;;;;;5034963;28;20520;-86
2023/07/29 05:45:26;;;;;;;0.00;0.00;;;;;;;;;;5034579;28;20068;-86
2023/07/29 05:47:52;;;;;;;0.10;0.10;;;;;;;;;;5034229;28;20017;-86
2023/07/29 05:50:18;;;;;;;0.00;0.00;;;;;;;;;;5034502;28;20552;-86
2023/07/29 05:52:44;;;;;;;0.10;0.10;;;;;;;;;;5034488;28;20030;-85
2023/07/29 05:55:10;;;;;;;0.15;0.15;;;;;;;;;;5033929;28;20068;-86
2023/07/29 05:57:36;;;;;;;0.10;0.10;;;;;;;;;;5033620;28;20029;-86
2023/07/29 06:00:02;;;;;;;0.20;0.20;;;;;;;;;;5033101;28;20032;-88
2023/07/29 06:02:31;;;;;;;0.28;0.28;;;;;;;;;;5034580;28;20034;-90
2023/07/29 06:04:57;;;;;;;0.00;0.00;;;;;;;;;;5034650;28;20433;-88
2023/07/29 06:07:23;;;;;;;0.45;0.43;;;;;;;;;;5034014;28;20114;-88
2023/07/29 06:09:49;;;;;;;0.65;0.47;;;;;;;;;;5034267;28;20113;-89
2023/07/29 06:12:15;;;;;;;0.05;0.05;;;;;;;;;;5033875;28;20030;-88
2023/07/29 06:14:41;;;;;;;0.10;0.10;;;;;;;;;;5034211;28;20029;-89
2023/07/29 06:17:07;;;;;;;0.40;0.40;;;;;;;;;;5033571;28;20128;-89
2023/07/29 06:19:33;;;;;;;0.10;0.10;;;;;;;;;;5033719;28;20096;-89
2023/07/29 06:22:01;;;;;;;0.10;0.10;;;;;;;;;;5034289;28;20130;-89
2023/07/29 06:24:27;;;;;;;0.10;0.10;;;;;;;;;;5033567;28;20385;-90
2023/07/29 06:26:53;;;;;;;0.10;0.10;;;;;;;;;;5034243;28;20025;-89
2023/07/29 06:29:19;;;;;;;0.10;0.10;;;;;;;;;;5034834;28;20028;-90
2023/07/29 06:31:45;;;;;;;0.13;0.13;;;;;;;;;;5038664;28;20371;-88
2023/07/29 06:34:11;;;;;;;0.32;0.32;;;;;;;;;;5033705;28;20026;-89
2023/07/29 06:36:37;;;;;;;0.00;0.00;;;;;;;;;;5033589;28;20465;-89
2023/07/29 06:39:03;;;;;;;0.10;0.10;;;;;;;;;;5033370;28;20113;-89
2023/07/29 06:41:29;;;;;;;0.13;0.13;;;;;;;;;;5025139;28;20032;-89
2023/07/29 06:43:56;;;;;;;0.20;0.20;;;;;;;;;;5032223;28;20033;-89
2023/07/29 06:46:22;;;;;;;0.10;0.10;;;;;;;;;;5026254;28;20506;-89
2023/07/29 06:48:48;;;;;;;0.20;0.20;;;;;;;;;;5012566;28;20036;-89
2023/07/29 06:51:14;;;;;;;0.20;0.20;;;;;;;;;;5019658;28;20441;-90
2023/07/29 06:53:40;;;;;;;0.30;0.30;;;;;;;;;;5021679;28;20021;-89
2023/07/29 06:56:06;;;;;;;0.75;0.57;;;;;;;;;;5031821;28;20383;-89
2023/07/29 06:58:32;;;;;;;0.20;0.20;;;;;;;;;;5029829;28;20021;-90
2023/07/29 07:00:58;;;;;;;0.10;0.10;;;;;;;;;;5027936;28;20108;-90
2023/07/29 07:03:24;;;;;;;0.20;0.20;;;;;;;;;;5032494;28;20081;-90
2023/07/29 07:05:50;;;;;;;0.00;0.00;;;;;;;;;;5032066;28;20022;-90
2023/07/29 07:08:16;;;;;;;0.10;0.10;;;;;;;;;;5032855;28;20032;-89
2023/07/29 07:10:42;;;;;;;2.35;0.28;;;;;;;;;;5031637;28;20037;-90
2023/07/29 07:13:08;;;;;;;0.20;0.20;;;;;;;;;;5031387;28;20029;-89
2023/07/29 07:15:34;;;;;;;0.05;0.05;;;;;;;;;;5030849;28;20029;-89
2023/07/29 07:18:01;;;;;;;0.10;0.10;;;;;;;;;;5031968;28;20053;-90
2023/07/29 07:20:27;;;;;;;0.32;0.10;;;;;;;;;;5032137;28;20053;-88
2023/07/29 07:22:55;;;;;;;0.10;0.10;;;;;;;;;;5031668;28;20556;-90
2023/07/29 07:25:21;;;;;;;0.15;0.15;;;;;;;;;;5031929;28;20032;-89
2023/07/29 07:27:48;;;;;;;0.22;0.22;;;;;;;;;;5026606;28;20378;-91
2023/07/29 07:30:14;;;;;;;0.10;0.03;;;;;;;;;;5027746;28;20412;-91
2023/07/29 07:32:40;;;;;;;0.03;0.03;;;;;;;;;;5031355;28;20080;-92
2023/07/29 07:35:06;;;;;;;0.00;0.00;;;;;;;;;;5029841;28;20032;-91
2023/07/29 07:37:32;;;;;;;0.20;0.20;;;;;;;;;;5029697;28;20053;-91
2023/07/29 07:39:58;;;;;;;0.22;0.22;;;;;;;;;;5031147;28;20032;-90
2023/07/29 07:42:24;;;;;;;0.10;0.10;;;;;;;;;;5030404;28;20041;-91
2023/07/29 07:44:50;;;;;;;0.20;0.20;;;;;;;;;;5031251;28;20022;-90
2023/07/29 07:47:16;;;;;;;0.30;0.30;;;;;;;;;;5030096;28;20030;-91
2023/07/29 07:49:42;;;;;;;0.00;0.00;;;;;;;;;;5031114;28;20029;-90
2023/07/29 07:52:08;;;;;;;0.20;0.20;;;;;;;;;;5031593;28;20398;-90
2023/07/29 07:54:34;;;;;;;0.00;0.00;;;;;;;;;;5032576;28;20033;-91
2023/07/29 07:57:00;;;;;;;0.65;0.20;;;;;;;;;;5032952;28;20037;-91
2023/07/29 07:59:26;;;;;;;0.08;0.08;;;;;;;;;;5032698;28;20105;-90
2023/07/29 08:01:52;;;;;;;0.15;0.15;;;;;;;;;;5032383;28;20029;-91
2023/07/29 08:04:18;;;;;;;0.10;0.10;;;;;;;;;;5041969;28;20033;-90
2023/07/29 08:06:44;;;;;;;0.20;0.20;;;;;;;;;;5039109;28;20037;-90
2023/07/29 08:09:10;;;;;;;0.10;0.10;;;;;;;;;;5049190;28;20539;-90
2023/07/29 08:11:36;;;;;;;0.10;0.10;;;;;;;;;;5056428;28;20041;-90
2023/07/29 08:14:02;;;;;;;1.45;0.20;;;;;;;;;;5046438;28;20056;-90
2023/07/29 08:16:28;;;;;;;0.00;0.00;;;;;;;;;;5035933;28;20423;-89
2023/07/29 08:18:54;;;;;;;0.10;0.10;;;;;;;;;;5036169;28;20120;-89
2023/07/29 08:21:20;;;;;;;3.30;0.30;;;;;;;;;;5035367;28;20028;-89
2023/07/29 08:23:46;;;;;;;0.00;0.00;;;;;;;;;;5035221;28;20497;-89
2023/07/29 08:26:12;;;;;;;0.63;0.22;;;;;;;;;;5035987;28;20030;-88
2023/07/29 08:28:40;;;;;;;0.10;0.10;;;;;;;;;;5036031;28;20036;-89
2023/07/29 08:31:06;;;;;;;0.52;0.35;;;;;;;;;;5035616;28;20034;-89
2023/07/29 08:33:33;;;;;;;0.63;0.35;;;;;;;;;;5046842;28;20477;-89
2023/07/29 08:35:59;;;;;;;1.55;0.47;;;;;;;;;;5055699;28;20056;-89
2023/07/29 08:38:26;;;;;;;0.20;0.20;;;;;;;;;;5044716;28;20033;-89
2023/07/29 08:40:54;;;;;;;0.38;0.38;;;;;;;;;;5042157;28;20021;-89
2023/07/29 08:43:24;;;;;;;0.00;0.00;;;;;;;;;;5016370;28;20486;-89
2023/07/29 08:45:51;;;;;;;0.10;0.10;;;;;;;;;;5038083;28;20036;-88
2023/07/29 08:48:20;;;;;;;0.00;0.00;;;;;;;;;;5035619;28;20117;-88
2023/07/29 08:50:46;;;;;;;0.13;0.10;;;;;;;;;;5053059;28;20409;-88
2023/07/29 08:53:13;;;;;;;0.00;0.00;;;;;;;;;;5055219;28;20036;-88
2023/07/29 08:55:39;;;;;;;0.00;0.00;;;;;;;;;;5051843;28;20029;-89
2023/07/29 08:58:05;;;;;;;0.10;0.10;;;;;;;;;;5046348;28;20108;-89
2023/07/29 09:00:32;;;;;;;0.10;0.10;;;;;;;;;;5035469;28;20025;-90
2023/07/29 09:03:02;;;;;;;0.30;0.20;;;;;;;;;;5035963;28;20033;-89
2023/07/29 09:05:28;;;;;;;0.10;0.10;;;;;;;;;;5055152;28;20083;-89
2023/07/29 09:07:55;;;;;;;0.10;0.10;;;;;;;;;;5038227;28;20033;-90
2023/07/29 09:10:23;;;;;;;0.75;0.10;;;;;;;;;;5034821;28;20091;-89
2023/07/29 09:12:49;;;;;;;0.10;0.10;;;;;;;;;;5036335;28;20032;-89
2023/07/29 09:15:26;;;;;;;0.00;0.00;;;;;;;;;;5032792;28;20087;-89
2023/07/29 09:17:52;;;;;;;0.10;0.10;;;;;;;;;;5035338;28;20049;-88
2023/07/29 09:20:23;;;;;;;0.00;0.00;;;;;;;;;;5035185;28;20036;-89
2023/07/29 09:22:49;;;;;;;0.00;0.00;;;;;;;;;;5034211;28;20022;-89
2023/07/29 09:25:17;;;;;;;0.10;0.10;;;;;;;;;;5034798;28;20125;-88
2023/07/29 09:27:43;;;;;;;0.00;0.00;;;;;;;;;;5034862;28;20029;-89
2023/07/29 09:30:16;;;;;;;0.00;0.00;;;;;;;;;;5033691;28;20037;-89
2023/07/29 09:32:42;;;;;;;0.10;0.10;;;;;;;;;;5035476;28;20494;-89
2023/07/29 09:35:12;;;;;;;0.20;0.20;;;;;;;;;;5033397;28;20025;-89
2023/07/29 09:37:41;;;;;;;0.60;0.22;;;;;;;;;;5034749;28;20109;-88
2023/07/29 09:40:07;;;;;;;0.25;0.25;;;;;;;;;;5034873;28;20052;-88
2023/07/29 09:42:33;;;;;;;0.38;0.25;;;;;;;;;;5034618;28;20041;-89
2023/07/29 09:44:59;;;;;;;0.20;0.20;;;;;;;;;;5046283;28;20025;-89
2023/07/29 09:47:26;;;;;;;0.20;0.20;;;;;;;;;;5054759;28;20379;-89
2023/07/29 09:49:53;;;;;;;0.40;0.40;;;;;;;;;;5052290;28;20055;-88
2023/07/29 09:52:20;;;;;;;0.15;0.15;;;;;;;;;;5054597;28;20037;-90
2023/07/29 09:54:46;;;;;;;0.20;0.20;;;;;;;;;;5048912;28;20024;-90
2023/07/29 09:57:17;;;;;;;0.10;0.10;;;;;;;;;;5053076;28;20029;-88
2023/07/29 09:59:43;;;;;;;0.10;0.10;;;;;;;;;;5052544;28;20029;-89
2023/07/29 10:02:16;;;;;;;0.75;0.32;;;;;;;;;;5035955;28;20036;-88
2023/07/29 10:04:43;;;;;;;0.10;0.10;;;;;;;;;;5037794;28;20025;-90
2023/07/29 10:07:10;;;;;;;0.73;0.73;;;;;;;;;;5053602;28;20033;-89
2023/07/29 10:09:36;;;;;;;0.10;0.10;;;;;;;;;;5052021;28;20021;-88
2023/07/29 10:12:02;;;;;;;0.15;0.15;;;;;;;;;;5032865;28;20505;-88
2023/07/29 10:14:28;;;;;;;0.10;0.10;;;;;;;;;;5033450;28;20030;-88
2023/07/29 10:16:55;;;;;;;0.20;0.20;;;;;;;;;;5045555;28;20045;-89
2023/07/29 10:19:22;;;;;;;0.20;0.20;;;;;;;;;;5037045;28;20100;-88
2023/07/29 10:21:50;;;;;;;0.13;0.13;;;;;;;;;;5034148;28;20440;-89
2023/07/29 10:24:17;;;;;;;0.13;0.13;;;;;;;;;;5039265;28;20397;-89
2023/07/29 10:26:45;;;;;;;1.52;0.93;;;;;;;;;;5036450;28;20057;-89
2023/07/29 10:29:12;;;;;;;0.52;0.50;;;;;;;;;;5033955;28;20043;-89
2023/07/29 10:31:39;;;;;;;0.60;0.60;;;;;;;;;;5024161;28;20037;-89
2023/07/29 10:34:05;;;;;;;0.30;0.30;;;;;;;;;;5012923;28;20026;-88
2023/07/29 10:36:31;;;;;;;0.40;0.17;;;;;;;;;;5046230;28;20370;-89
2023/07/29 10:38:57;;;;;;;0.15;0.15;;;;;;;;;;5053618;28;20105;-91
2023/07/29 10:41:23;;;;;;;0.50;0.25;;;;;;;;;;5041690;28;20048;-88
2023/07/29 10:43:49;;;;;;;0.20;0.20;;;;;;;;;;5052308;28;20114;-88
2023/07/29 10:46:20;;;;;;;0.98;0.20;;;;;;;;;;5042066;28;20041;-89
2023/07/29 10:48:52;;;;;;;0.10;0.10;;;;;;;;;;5033539;28;20033;-88
2023/07/29 10:51:21;;;;;;;0.22;0.22;;;;;;;;;;5033563;28;20034;-89
2023/07/29 10:53:47;;;;;;;0.10;0.10;;;;;;;;;;5032014;28;20159;-88
2023/07/29 10:56:13;;;;;;;0.00;0.00;;;;;;;;;;5033061;28;20064;-88
2023/07/29 10:58:39;;;;;;;0.20;0.20;;;;;;;;;;5032591;28;20033;-89
2023/07/29 11:01:13;;;;;;;0.10;0.10;;;;;;;;;;5031328;28;20091;-88
2023/07/29 11:03:39;;;;;;;0.10;0.10;;;;;;;;;;5031077;28;20076;-88
2023/07/29 11:06:05;;;;;;;0.10;0.10;;;;;;;;;;5032649;28;20022;-89
2023/07/29 11:08:31;;;;;;;0.20;0.20;;;;;;;;;;5034181;28;20025;-89
2023/07/29 11:11:08;;;;;;;0.77;0.45;;;;;;;;;;5032602;28;20036;-89
2023/07/29 11:13:35;;;;;;;0.10;0.10;;;;;;;;;;5032602;28;20045;-89
2023/07/29 11:16:01;;;;;;;0.10;0.10;;;;;;;;;;5027631;28;20029;-88
2023/07/29 11:18:36;;;;;;;0.20;0.20;;;;;;;;;;5036304;28;20044;-86
2023/07/29 11:21:03;;;;;;;0.82;0.20;;;;;;;;;;5029175;28;20031;-88
2023/07/29 11:23:33;;;;;;;0.30;0.30;;;;;;;;;;5042740;28;20021;-88
2023/07/29 11:26:00;;;;;;;5.30;1.20;;;;;;;;;;5039368;28;20448;-88
2023/07/29 11:28:26;;;;;;;0.10;0.10;;;;;;;;;;5035150;28;20083;-88
2023/07/29 11:30:52;;;;;;;0.10;0.10;;;;;;;;;;5034783;28;20083;-89
2023/07/29 11:33:20;;;;;;;0.20;0.20;;;;;;;;;;5033801;28;20021;-88
2023/07/29 11:35:46;;;;;;;0.30;0.30;;;;;;;;;;5036191;28;20037;-88
2023/07/29 11:38:15;;;;;;;0.15;0.15;;;;;;;;;;5047582;28;20126;-89
2023/07/29 11:40:41;;;;;;;0.38;0.38;;;;;;;;;;5052211;28;20374;-89
2023/07/29 11:43:07;;;;;;;0.10;0.10;;;;;;;;;;5052656;28;20115;-89
2023/07/29 11:45:33;;;;;;;0.30;0.30;;;;;;;;;;5050118;28;20040;-88
2023/07/29 11:48:01;;;;;;;0.20;0.20;;;;;;;;;;5035613;28;20021;-88
2023/07/29 11:50:27;;;;;;;0.20;0.20;;;;;;;;;;5031725;28;20090;-94
2023/07/29 11:52:53;;;;;;;0.10;0.10;;;;;;;;;;5043077;28;20076;-88
2023/07/29 11:55:20;;;;;;;0.28;0.28;;;;;;;;;;5045049;28;20128;-85
2023/07/29 11:57:47;;;;;;;0.13;0.13;;;;;;;;;;5051369;28;20021;-85
2023/07/29 12:00:14;;;;;;;0.20;0.20;;;;;;;;;;5051946;28;20025;-85
2023/07/29 12:02:41;;;;;;;0.30;0.30;;;;;;;;;;5051646;28;20032;-85
2023/07/29 12:05:08;;;;;;;0.30;0.30;;;;;;;;;;5051585;28;20405;-85
2023/07/29 12:07:34;;;;;;;0.10;0.10;;;;;;;;;;5051974;28;20158;-85
2023/07/29 12:10:00;;;;;;;0.30;0.30;;;;;;;;;;5050536;28;20037;-86
2023/07/29 12:12:26;;;;;;;0.45;0.45;;;;;;;;;;5052347;28;20108;-85
2023/07/29 12:14:54;;;;;;;0.28;0.28;;;;;;;;;;5051218;28;20155;-85
2023/07/29 12:17:20;;;;;;;0.25;0.25;;;;;;;;;;5032840;28;20107;-85
2023/07/29 12:19:46;;;;;;;0.93;0.30;;;;;;;;;;5031614;28;20108;-85
2023/07/29 12:22:12;;;;;;;0.65;0.45;;;;;;;;;;5031723;28;20026;-85
2023/07/29 12:24:40;;;;;;;0.08;0.08;;;;;;;;;;5030843;28;20037;-84
2023/07/29 12:27:06;;;;;;;0.28;0.20;;;;;;;;;;5031359;28;20032;-85
2023/07/29 12:29:32;;;;;;;0.20;0.20;;;;;;;;;;5031416;28;20017;-85
2023/07/29 12:32:03;;;;;;;0.55;0.32;;;;;;;;;;5031013;28;20040;-84
2023/07/29 12:34:29;;;;;;;0.50;0.50;;;;;;;;;;5044121;28;20057;-85
2023/07/29 12:36:56;;;;;;;0.70;0.70;;;;;;;;;;5050027;28;20032;-85
2023/07/29 12:39:29;;;;;;;0.73;0.70;;;;;;;;;;5032326;28;20035;-85
2023/07/29 12:41:56;;;;;;;2.08;0.75;;;;;;;;;;5030808;28;20057;-85
2023/07/29 12:44:23;;;;;;;0.43;0.15;;;;;;;;;;5031396;28;20167;-85
2023/07/29 12:46:49;;;;;;;0.55;0.52;;;;;;;;;;5031716;28;20026;-85
2023/07/29 12:49:15;;;;;;;2.50;0.50;;;;;;;;;;5032788;28;20396;-86
2023/07/29 12:51:42;;;;;;;1.77;0.35;;;;;;;;;;5035150;28;20120;-85
2023/07/29 12:54:08;;;;;;;0.70;0.57;;;;;;;;;;5033089;28;20113;-85
2023/07/29 12:56:34;;;;;;;0.73;0.52;;;;;;;;;;5043739;28;20112;-86
2023/07/29 12:59:01;;;;;;;0.40;0.40;;;;;;;;;;5047797;28;20096;-86
2023/07/29 13:01:27;;;;;;;0.25;0.25;;;;;;;;;;5055247;28;20025;-85
2023/07/29 13:03:53;;;;;;;0.38;0.38;;;;;;;;;;5034944;28;20029;-86
2023/07/29 13:06:19;;;;;;;0.10;0.10;;;;;;;;;;5034861;28;20120;-86
2023/07/29 13:08:46;;;;;;;0.43;0.43;;;;;;;;;;5034282;28;20390;-85
2023/07/29 13:11:12;;;;;;;0.10;0.10;;;;;;;;;;5034840;28;20520;-86
2023/07/29 13:13:38;;;;;;;0.55;0.55;;;;;;;;;;5052080;28;20112;-85
2023/07/29 13:16:04;;;;;;;0.30;0.10;;;;;;;;;;5054712;28;20068;-86
2023/07/29 13:18:30;;;;;;;0.50;0.50;;;;;;;;;;5055538;28;20051;-86
2023/07/29 13:20:57;;;;;;;0.20;0.20;;;;;;;;;;5053126;28;20029;-86
2023/07/29 13:23:23;;;;;;;0.30;0.28;;;;;;;;;;5048778;28;20018;-86
2023/07/29 13:25:49;;;;;;;0.10;0.10;;;;;;;;;;5034426;28;20080;-85
2023/07/29 13:28:15;;;;;;;0.15;0.15;;;;;;;;;;5034531;28;20065;-85
2023/07/29 13:30:41;;;;;;;0.20;0.20;;;;;;;;;;5034423;28;20045;-86
2023/07/29 13:33:07;;;;;;;0.00;0.00;;;;;;;;;;5034526;28;20044;-86
2023/07/29 13:35:33;;;;;;;0.32;0.32;;;;;;;;;;5034483;28;20375;-86
2023/07/29 13:38:00;;;;;;;0.13;0.13;;;;;;;;;;5034382;28;20025;-86
2023/07/29 13:40:26;;;;;;;0.10;0.10;;;;;;;;;;5034289;28;20100;-86
2023/07/29 13:42:52;;;;;;;0.10;0.10;;;;;;;;;;5034411;28;20108;-86
2023/07/29 13:45:18;;;;;;;0.00;0.00;;;;;;;;;;5034116;28;20095;-86
2023/07/29 13:47:44;;;;;;;0.08;0.08;;;;;;;;;;5034241;28;20029;-86
2023/07/29 13:50:11;;;;;;;1.45;0.40;;;;;;;;;;5034216;28;20365;-86
2023/07/29 13:52:37;;;;;;;0.20;0.20;;;;;;;;;;5034320;28;20025;-86
2023/07/29 13:55:04;;;;;;;0.10;0.10;;;;;;;;;;5033868;28;20030;-86
2023/07/29 13:57:30;;;;;;;0.15;0.15;;;;;;;;;;5034161;28;20036;-86
2023/07/29 13:59:56;;;;;;;0.20;0.20;;;;;;;;;;5033857;28;20390;-86
2023/07/29 14:02:22;;;;;;;0.10;0.10;;;;;;;;;;5033582;28;20025;-86
2023/07/29 14:04:48;;;;;;;0.35;0.35;;;;;;;;;;5033878;28;20028;-86
2023/07/29 14:07:14;;;;;;;0.28;0.28;;;;;;;;;;5034102;28;20029;-86
2023/07/29 14:09:40;;;;;;;0.08;0.08;;;;;;;;;;5033544;28;20025;-86
2023/07/29 14:12:06;;;;;;;0.10;0.10;;;;;;;;;;5033699;28;20033;-86
2023/07/29 14:14:32;;;;;;;0.10;0.10;;;;;;;;;;5033832;28;20029;-86
2023/07/29 14:16:58;;;;;;;0.20;0.20;;;;;;;;;;5033539;28;20057;-86
2023/07/29 14:19:24;;;;;;;1.10;0.20;;;;;;;;;;5033636;28;20075;-86
2023/07/29 14:21:50;;;;;;;0.45;0.45;;;;;;;;;;5033662;28;20101;-86
2023/07/29 14:24:16;;;;;;;0.10;0.10;;;;;;;;;;5033550;28;20052;-86
2023/07/29 14:26:42;;;;;;;0.30;0.30;;;;;;;;;;5033139;28;20500;-86
2023/07/29 14:29:08;;;;;;;0.00;0.00;;;;;;;;;;5033509;28;20545;-86
2023/07/29 14:31:34;;;;;;;0.20;0.20;;;;;;;;;;5033352;28;20116;-86
2023/07/29 14:34:00;;;;;;;0.10;0.10;;;;;;;;;;5033270;28;20035;-87
2023/07/29 14:36:26;;;;;;;0.10;0.10;;;;;;;;;;5033299;28;20056;-86
2023/07/29 14:38:52;;;;;;;0.20;0.20;;;;;;;;;;5033356;28;20407;-86